Cortez, CO

9:21 PM MST on November 17, 2017 (GMT -0700)
North Cortez | | Change Station

Elev 6120 ft 37.36 °N, 108.57 °W | Updated 16 seconds ago

Overcast
Overcast
36.1 °F
Feels Like 28 °F
N
13.0
Wind Variable Wind from NW
Gusts 17.4 mph

Today
High -- | Low -- °F
--% Chance of Precip.
Yesterday
High -- | Low -- °F
Precip. -- in
Pressure 30.06 in
Visibility 1.8 miles
Clouds Mostly Cloudy 1500 ft
Overcast 7000 ft
Windchill 28 °F
Dew Point 34 °F
Humidity 92%
Rainfall 0.00 in
Snow Depth Not available.
6:56 AM 5:02 PM
Waning Crescent, 0% visible
SPECI KCEZ 180412Z AUTO 33020G40KT 1 3/4SM -SN BKN015 OVC070 02/M01 A3006 RMK AO2 PK WND 35040/0404 RAB0358E04SNB04 PRESRR P0000 T00221011
Pressure 30.06 in
Visibility 1.8 miles
Clouds Mostly Cloudy 1500 ft
Overcast 7000 ft
Windchill 28 °F
Dew Point 34 °F
Humidity 92%
Rainfall 0.00 in
Snow Depth Not available.
6:56 AM 5:02 PM
Waning Crescent, 0% visible
SPECI KCEZ 180412Z AUTO 33020G40KT 1 3/4SM -SN BKN015 OVC070 02/M01 A3006 RMK AO2 PK WND 35040/0404 RAB0358E04SNB04 PRESRR P0000 T00221011

Get Severe Weather Alerts

Thanks for signing up!

Be on the lookout for a verification email in your inbox.

You'll start receiving the daily forecast at 6 AM.

×

10-Day Weather Forecast

Almanac

Astronomy

Nov. 17, 2017 Rise Set
Actual Time
Civil Twilight
Nautical Twilight
Astronomical Twilight
Moon
Length of Visible Light
Length of Day
Tomorrow will be .
, % of the Moon is Illuminated

Today's Extremes

State Highs State Lows

Community

WunderPhotos

Category 6

Welcome to Category 6. This is the collective home for Weather Underground's featured writeups by Dr. Jeff Masters (right), Bob Henson (left), Chris Burt, and other regular contributors.

Nearby

Air Quality

  Air Quality AQ Index Pollutant
Not available.

Snow Depth

Station Depth Elevation

Earthquake Activity

City Distance Mag. Time & Date
Minimum magnitude displayed is 2.5.

Coastal Water Temperatures

Place Temperature

Stations

Nearby Weather Stations

Station Location Temp. Windchill Dew Point Humidity Wind Precip. Elev Updated Type
                   

Watches & Warnings

There are currently no watches in effect.